createdAt,value
2023-11-12T00:01:47.800Z,99279.81
2023-11-12T00:04:16.553Z,99277.66
2023-11-12T00:06:43.896Z,99288.38
2023-11-12T00:09:11.765Z,99265.81
2023-11-12T00:11:39.230Z,99282.16
2023-11-12T00:14:07.422Z,99297.09
2023-11-12T00:16:34.890Z,99303.59
2023-11-12T00:19:02.198Z,99297.22
2023-11-12T00:21:30.916Z,99302.38
2023-11-12T00:23:58.246Z,99279.41
2023-11-12T00:26:25.566Z,99296.38
2023-11-12T00:28:52.885Z,99284.31
2023-11-12T00:31:20.182Z,99287.22
2023-11-12T00:33:48.434Z,99291.31
2023-11-12T00:36:15.801Z,99287.44
2023-11-12T00:38:44.425Z,99282.34
2023-11-12T00:41:11.754Z,99276.78
2023-11-12T00:43:39.158Z,99281.38
2023-11-12T00:46:06.594Z,99285.94
2023-11-12T00:48:33.892Z,99282.59
2023-11-12T00:51:01.250Z,99278.69
2023-11-12T00:53:28.687Z,99292.56
2023-11-12T00:55:57.460Z,99301.91
2023-11-12T00:58:24.850Z,99315.53
2023-11-12T01:00:52.126Z,99376.34
2023-11-12T01:03:20.031Z,99367.91
2023-11-12T01:05:47.334Z,99359.88
2023-11-12T01:08:14.732Z,99353.72
2023-11-12T01:10:42.042Z,99358.72
2023-11-12T01:13:10.829Z,99352.44
2023-11-12T01:15:38.154Z,99358.47
2023-11-12T01:18:06.006Z,99353.47
2023-11-12T01:20:33.525Z,99372.66
2023-11-12T01:23:00.822Z,99363.41
2023-11-12T01:25:28.220Z,99388.84
2023-11-12T01:27:55.485Z,99398.75
2023-11-12T01:30:24.237Z,99413.59
2023-11-12T01:32:51.500Z,99419.03
2023-11-12T01:35:19.026Z,99419.25
2023-11-12T01:37:46.318Z,99419.94
2023-11-12T01:40:14.076Z,99420.53
2023-11-12T01:42:41.482Z,99430.84
2023-11-12T01:45:09.652Z,99444.94
2023-11-12T01:47:40.336Z,99435.56
2023-11-12T01:50:09.536Z,99440.00
2023-11-12T01:52:38.395Z,99447.50
2023-11-12T01:55:07.800Z,99451.34
2023-11-12T01:57:36.021Z,99452.69
2023-11-12T02:00:04.378Z,99450.06
2023-11-12T02:02:36.588Z,99454.22
2023-11-12T02:05:05.768Z,99468.50
2023-11-12T02:07:33.996Z,99469.66
2023-11-12T02:10:01.451Z,99470.16
2023-11-12T02:12:29.006Z,99469.72
2023-11-12T02:14:56.355Z,99470.88
2023-11-12T02:17:23.658Z,99473.25
2023-11-12T02:19:50.924Z,99468.06
2023-11-12T02:22:19.615Z,99470.38
2023-11-12T02:24:48.254Z,99468.00
2023-11-12T02:27:15.638Z,99457.09
2023-11-12T02:29:48.262Z,99453.91
2023-11-12T02:32:15.708Z,99461.91
2023-11-12T02:34:42.998Z,99464.94
2023-11-12T02:37:10.373Z,99480.00
2023-11-12T02:39:37.919Z,99490.88
2023-11-12T02:42:07.364Z,99487.03
2023-11-12T02:44:34.728Z,99490.75
2023-11-12T02:47:01.993Z,99480.66
2023-11-12T02:49:44.966Z,99477.78
2023-11-12T02:52:12.219Z,99493.72
2023-11-12T02:54:39.521Z,99496.72
2023-11-12T02:57:08.509Z,99495.72
2023-11-12T02:59:35.924Z,99492.34
2023-11-12T03:02:03.372Z,99491.53
2023-11-12T03:04:30.811Z,99485.63
2023-11-12T03:06:58.104Z,99497.19
2023-11-12T03:09:25.597Z,99495.69
2023-11-12T03:11:52.917Z,99502.47
2023-11-12T03:14:21.608Z,99509.16
2023-11-12T03:16:49.265Z,99511.66
2023-11-12T03:19:16.590Z,99511.53
2023-11-12T03:21:47.893Z,99532.59
2023-11-12T03:24:15.158Z,99528.72
2023-11-12T03:26:42.462Z,99522.97
2023-11-12T03:29:09.725Z,99527.50
2023-11-12T03:31:38.423Z,99532.19
2023-11-12T03:34:05.722Z,99529.06
2023-11-12T03:36:32.993Z,99536.47
2023-11-12T03:39:00.297Z,99539.53
2023-11-12T03:41:27.545Z,99539.56
2023-11-12T03:43:54.928Z,99539.56
2023-11-12T03:46:22.249Z,99544.63
2023-11-12T03:48:50.916Z,99537.59
2023-11-12T03:51:18.335Z,99530.72
2023-11-12T03:53:45.721Z,99537.75
2023-11-12T03:56:13.007Z,99542.31
2023-11-12T03:58:40.392Z,99538.50
2023-11-12T04:01:07.872Z,99552.81
2023-11-12T04:03:35.199Z,99558.47
2023-11-12T04:06:04.358Z,99564.66
2023-11-12T04:08:31.617Z,99558.09
2023-11-12T04:10:58.928Z,99567.84
2023-11-12T04:13:26.188Z,99562.66
2023-11-12T04:15:53.498Z,99577.50
2023-11-12T04:18:20.922Z,99580.97
2023-11-12T04:20:48.332Z,99583.00
2023-11-12T04:23:17.128Z,99599.59
2023-11-12T04:25:44.425Z,99614.00
2023-11-12T04:28:11.714Z,99614.19
2023-11-12T04:30:39.163Z,99617.44
2023-11-12T04:33:06.456Z,99604.31
2023-11-12T04:35:33.759Z,99607.38
2023-11-12T04:38:01.013Z,99613.78
2023-11-12T04:40:29.679Z,99619.94
2023-11-12T04:42:56.937Z,99612.00
2023-11-12T04:45:24.216Z,99619.31
2023-11-12T04:47:51.546Z,99622.81
2023-11-12T04:50:18.919Z,99634.66
2023-11-12T04:52:46.332Z,99623.50
2023-11-12T04:55:13.644Z,99627.41
2023-11-12T04:57:42.342Z,99639.41
2023-11-12T05:00:12.595Z,99630.34
2023-11-12T05:02:41.100Z,99627.66
2023-11-12T05:05:08.475Z,99629.69
2023-11-12T05:07:35.934Z,99640.75
2023-11-12T05:10:03.294Z,99647.59
2023-11-12T05:12:30.679Z,99654.00
2023-11-12T05:14:59.353Z,99652.78
2023-11-12T05:17:26.698Z,99650.25
2023-11-12T05:19:53.999Z,99652.31
2023-11-12T05:22:21.261Z,99649.97
2023-11-12T05:24:48.554Z,99655.16
2023-11-12T05:27:15.877Z,99666.94
2023-11-12T05:29:43.156Z,99682.81
2023-11-12T05:32:11.784Z,99683.59
2023-11-12T05:34:39.063Z,99687.31
2023-11-12T05:37:06.526Z,99698.53
2023-11-12T05:39:33.873Z,99701.78
2023-11-12T05:42:01.373Z,99696.16
2023-11-12T05:44:28.676Z,99699.97
2023-11-12T05:46:55.931Z,99699.88
2023-11-12T05:49:24.549Z,99705.16
2023-11-12T05:51:51.810Z,99715.38
2023-11-12T05:54:19.244Z,99712.31
2023-11-12T05:56:46.519Z,99719.00
2023-11-12T05:59:13.785Z,99719.53
2023-11-12T06:01:41.125Z,99711.38
2023-11-12T06:04:08.470Z,99705.34
2023-11-12T06:06:37.172Z,99708.13
2023-11-12T06:09:04.733Z,99702.00
2023-11-12T06:11:31.978Z,99713.03
2023-11-12T06:13:59.237Z,99712.69
2023-11-12T06:16:26.578Z,99713.22
2023-11-12T06:18:53.880Z,99720.94
2023-11-12T06:21:21.268Z,99719.91
2023-11-12T06:23:49.911Z,99729.16
2023-11-12T06:26:17.400Z,99736.66
2023-11-12T06:28:44.728Z,99743.81
2023-11-12T06:31:12.013Z,99747.34
2023-11-12T06:33:39.344Z,99756.25
2023-11-12T06:36:07.393Z,99751.34
2023-11-12T06:38:34.670Z,99745.78
2023-11-12T06:41:03.455Z,99748.53
2023-11-12T06:43:30.715Z,99740.91
2023-11-12T06:45:58.031Z,99760.50
2023-11-12T06:48:25.345Z,99759.97
2023-11-12T06:50:52.672Z,99756.63
2023-11-12T06:53:19.934Z,99748.34
2023-11-12T06:55:47.253Z,99758.75
2023-11-12T06:58:16.008Z,99760.22
2023-11-12T07:00:43.376Z,99761.06
2023-11-12T07:03:10.889Z,99763.28
2023-11-12T07:05:38.240Z,99751.97
2023-11-12T07:08:06.047Z,99748.72
2023-11-12T07:10:33.326Z,99765.72
2023-11-12T07:13:00.719Z,99763.84
2023-11-12T07:15:29.369Z,99765.41
2023-11-12T07:17:56.666Z,99776.41
2023-11-12T07:20:23.947Z,99788.72
2023-11-12T07:22:51.213Z,99795.88
2023-11-12T07:25:18.481Z,99799.00
2023-11-12T07:27:45.857Z,99792.88
2023-11-12T07:30:13.522Z,99802.09
2023-11-12T07:32:42.227Z,99799.53
2023-11-12T07:35:10.739Z,99810.28
2023-11-12T07:37:38.292Z,99822.75
2023-11-12T07:40:06.638Z,99828.00
2023-11-12T07:42:33.932Z,99833.66
2023-11-12T07:45:06.990Z,99836.94
2023-11-12T07:47:39.858Z,99837.00
2023-11-12T07:50:09.536Z,99839.81
2023-11-12T07:52:36.930Z,99834.66
2023-11-12T07:55:04.628Z,99836.28
2023-11-12T07:57:32.784Z,99833.06
2023-11-12T08:00:00.243Z,99843.38
2023-11-12T08:02:27.593Z,99857.91
2023-11-12T08:04:55.021Z,99854.06
2023-11-12T08:07:24.128Z,99861.94
2023-11-12T08:09:51.416Z,99851.84
2023-11-12T08:12:18.867Z,99862.00
2023-11-12T08:14:46.205Z,99864.97
2023-11-12T08:17:13.461Z,99859.06
2023-11-12T08:19:40.751Z,99845.22
2023-11-12T08:22:08.222Z,99845.88
2023-11-12T08:24:36.910Z,99853.06
2023-11-12T08:27:04.187Z,99864.31
2023-11-12T08:29:31.986Z,99870.44
2023-11-12T08:31:59.597Z,99870.34
2023-11-12T08:34:27.012Z,99872.47
2023-11-12T08:36:54.321Z,99868.94
2023-11-12T08:39:21.665Z,99869.28
2023-11-12T08:41:51.021Z,99872.91
2023-11-12T08:44:18.317Z,99880.66
2023-11-12T08:46:45.753Z,99877.69
2023-11-12T08:49:13.071Z,99881.75
2023-11-12T08:51:40.361Z,99885.56
2023-11-12T08:54:07.856Z,99887.81
2023-11-12T08:56:35.306Z,99890.47
2023-11-12T08:59:04.007Z,99905.09
2023-11-12T09:01:34.183Z,99903.53
2023-11-12T09:04:01.636Z,99906.25
2023-11-12T09:06:29.003Z,99918.66
2023-11-12T09:08:56.443Z,99920.22
2023-11-12T09:11:23.762Z,99922.53
2023-11-12T09:13:51.227Z,99910.19
2023-11-12T09:16:20.130Z,99908.50
2023-11-12T09:18:47.453Z,99913.47
2023-11-12T09:21:14.737Z,99927.25
2023-11-12T09:23:42.001Z,99937.34
2023-11-12T09:26:09.280Z,99925.03
2023-11-12T09:28:37.307Z,99927.50
2023-11-12T09:31:04.962Z,99923.94
2023-11-12T09:33:33.882Z,99924.44
2023-11-12T09:36:01.319Z,99924.66
2023-11-12T09:38:28.577Z,99917.69
2023-11-12T09:41:00.012Z,99920.19
2023-11-12T09:43:29.734Z,99917.06
2023-11-12T09:45:57.959Z,99916.25
2023-11-12T09:48:31.351Z,99912.91
2023-11-12T09:51:00.763Z,99913.13
2023-11-12T09:53:29.906Z,99919.81
2023-11-12T09:55:58.216Z,99924.13
2023-11-12T09:58:25.642Z,99928.13
2023-11-12T10:00:58.687Z,99926.47
2023-11-12T10:03:26.420Z,99932.75
2023-11-12T10:05:53.819Z,99937.13
2023-11-12T10:08:23.973Z,99937.72
2023-11-12T10:10:51.353Z,99935.25
2023-11-12T10:13:18.645Z,99936.94
2023-11-12T10:18:12.973Z,99933.16
2023-11-12T10:20:41.412Z,99932.31
2023-11-12T10:23:30.555Z,99934.81
2023-11-12T10:26:11.119Z,99934.81
2023-11-12T10:28:38.438Z,99941.25
2023-11-12T10:31:05.845Z,99946.06
2023-11-12T10:33:33.208Z,99948.16
2023-11-12T10:36:08.260Z,99947.09
2023-11-12T10:38:46.122Z,99946.94
2023-11-12T10:41:14.792Z,99947.53
2023-11-12T10:43:57.881Z,99944.00
2023-11-12T10:46:26.146Z,99950.66
2023-11-12T10:48:55.351Z,99949.63
2023-11-12T10:51:22.967Z,99952.69
2023-11-12T10:53:51.331Z,99950.16
2023-11-12T10:56:20.082Z,99950.56
2023-11-12T10:58:47.943Z,99945.16
2023-11-12T11:01:15.535Z,99945.59
2023-11-12T11:03:43.598Z,99933.91
2023-11-12T11:06:12.133Z,99940.19
2023-11-12T11:08:39.391Z,99934.63
2023-11-12T11:11:09.470Z,99931.13
2023-11-12T11:13:39.637Z,99924.13
2023-11-12T11:16:08.399Z,99928.53
2023-11-12T11:18:52.192Z,99926.25
2023-11-12T11:21:20.288Z,99926.13
2023-11-12T11:23:49.877Z,99923.75
2023-11-12T11:26:34.207Z,99912.56
2023-11-12T11:29:13.179Z,99904.09
2023-11-12T11:31:42.377Z,99906.38
2023-11-12T11:34:10.570Z,99903.34
2023-11-12T11:36:37.966Z,99900.78
2023-11-12T11:39:23.820Z,99895.97
2023-11-12T11:42:18.614Z,99889.63
2023-11-12T11:44:48.301Z,99872.56
2023-11-12T11:47:17.002Z,99878.84
2023-11-12T11:49:47.274Z,99882.25
2023-11-12T11:52:19.251Z,99879.91
2023-11-12T11:54:52.691Z,99865.31
2023-11-12T11:57:23.660Z,99868.31
2023-11-12T11:59:52.825Z,99859.25
2023-11-12T12:02:20.080Z,99853.53
2023-11-12T12:04:48.010Z,99849.00
2023-11-12T12:07:23.060Z,99846.13
2023-11-12T12:09:51.335Z,99851.78
2023-11-12T12:12:19.005Z,99846.72
2023-11-12T12:14:46.725Z,99846.53
2023-11-12T12:17:15.577Z,99849.16
2023-11-12T12:19:43.137Z,99854.84
2023-11-12T12:22:10.883Z,99854.91
2023-11-12T12:24:38.399Z,99849.81
2023-11-12T12:27:07.265Z,99861.97
2023-11-12T12:29:34.747Z,99862.13
2023-11-12T12:32:13.622Z,99865.00
2023-11-12T12:34:42.942Z,99865.69
2023-11-12T12:37:10.414Z,99847.53
2023-11-12T12:39:47.763Z,99850.75
2023-11-12T12:42:15.578Z,99851.34
2023-11-12T12:44:47.853Z,99841.03
2023-11-12T12:47:31.451Z,99839.91
2023-11-12T12:50:11.268Z,99836.16
2023-11-12T12:52:38.594Z,99838.19
2023-11-12T12:55:06.064Z,99836.16
2023-11-12T12:57:33.580Z,99832.50
2023-11-12T13:00:00.918Z,99835.41
2023-11-12T13:02:28.256Z,99845.84
2023-11-12T13:04:56.041Z,99844.47
2023-11-12T13:07:24.701Z,99847.66
2023-11-12T13:09:52.004Z,99845.03
2023-11-12T13:12:19.292Z,99843.81
2023-11-12T13:14:46.643Z,99850.41
2023-11-12T13:17:13.888Z,99853.13
2023-11-12T13:19:41.195Z,99854.78
2023-11-12T13:22:08.623Z,99852.19
2023-11-12T13:24:37.314Z,99850.47
2023-11-12T13:27:04.590Z,99845.91
2023-11-12T13:29:31.855Z,99843.31
2023-11-12T13:31:59.156Z,99854.31
2023-11-12T13:34:26.534Z,99851.97
2023-11-12T13:36:53.876Z,99858.31
2023-11-12T13:39:21.286Z,99855.34
2023-11-12T13:41:49.916Z,99847.03
2023-11-12T13:44:17.166Z,99852.63
2023-11-12T13:46:44.564Z,99851.28
2023-11-12T13:49:11.961Z,99852.16
2023-11-12T13:51:39.434Z,99854.97
2023-11-12T13:54:06.886Z,99851.41
2023-11-12T13:56:34.137Z,99855.56
2023-11-12T13:59:02.751Z,99864.19
2023-11-12T14:01:30.188Z,99864.56
2023-11-12T14:03:57.684Z,99868.91
2023-11-12T14:06:25.008Z,99859.44
2023-11-12T14:08:52.339Z,99852.41
2023-11-12T14:11:19.768Z,99866.28
2023-11-12T14:13:47.583Z,99866.81
2023-11-12T14:16:16.344Z,99863.28
2023-11-12T14:18:43.947Z,99858.00
2023-11-12T14:21:11.650Z,99858.16
2023-11-12T14:23:39.202Z,99848.19
2023-11-12T14:26:06.736Z,99853.63
2023-11-12T14:28:34.040Z,99849.47
2023-11-12T14:31:01.414Z,99849.03
2023-11-12T14:33:30.131Z,99844.88
2023-11-12T14:35:57.558Z,99837.78
2023-11-12T14:38:24.809Z,99838.09
2023-11-12T14:40:52.068Z,99835.97
2023-11-12T14:43:19.429Z,99831.00
2023-11-12T14:45:46.749Z,99839.31
2023-11-12T14:48:14.163Z,99848.25
2023-11-12T14:50:42.812Z,99864.31
2023-11-12T14:53:10.092Z,99859.44
2023-11-12T14:55:37.367Z,99853.13
2023-11-12T14:58:04.630Z,99868.41
2023-11-12T15:00:32.140Z,99854.13
2023-11-12T15:03:00.839Z,99864.66
2023-11-12T15:05:28.596Z,99865.72
2023-11-12T15:07:57.316Z,99870.09
2023-11-12T15:10:24.748Z,99869.16
2023-11-12T15:12:52.440Z,99868.72
2023-11-12T15:15:19.924Z,99869.47
2023-11-12T15:17:47.213Z,99881.16
2023-11-12T15:20:14.721Z,99889.25
2023-11-12T15:22:42.693Z,99886.38
2023-11-12T15:25:11.720Z,99893.91
2023-11-12T15:27:39.172Z,99913.34
2023-11-12T15:30:07.840Z,99908.13
2023-11-12T15:32:35.106Z,99921.50
2023-11-12T15:35:02.369Z,99932.81
2023-11-12T15:37:29.617Z,99929.91
2023-11-12T15:39:56.923Z,99933.88
2023-11-12T15:42:25.569Z,99936.09
2023-11-12T15:44:52.827Z,99921.00
2023-11-12T15:47:20.083Z,99932.25
2023-11-12T15:49:47.432Z,99939.34
2023-11-12T15:52:14.709Z,99929.94
2023-11-12T15:54:42.087Z,99932.03
2023-11-12T15:57:09.442Z,99930.38
2023-11-12T15:59:38.091Z,99932.66
2023-11-12T16:02:05.495Z,99932.47
2023-11-12T16:04:32.824Z,99932.66
2023-11-12T16:07:00.244Z,99929.31
2023-11-12T16:09:27.743Z,99934.56
2023-11-12T16:11:55.052Z,99926.22
2023-11-12T16:14:22.339Z,99932.47
2023-11-12T16:16:50.992Z,99938.53
2023-11-12T16:19:18.284Z,99939.81
2023-11-12T16:21:46.161Z,99948.34
2023-11-12T16:24:13.575Z,99947.94
2023-11-12T16:26:40.898Z,99937.31
2023-11-12T16:29:08.288Z,99940.00
2023-11-12T16:31:35.823Z,99943.53
2023-11-12T16:34:04.755Z,99942.47
2023-11-12T16:36:32.105Z,99942.25
2023-11-12T16:38:59.371Z,99944.00
2023-11-12T16:41:26.657Z,99945.06
2023-11-12T16:43:54.215Z,99946.34
2023-11-12T16:46:22.720Z,99954.22
2023-11-12T16:48:50.015Z,99948.31
2023-11-12T16:51:18.670Z,99956.56
2023-11-12T16:53:46.006Z,99955.06
2023-11-12T16:56:13.304Z,99958.03
2023-11-12T16:58:40.760Z,99962.50
2023-11-12T17:01:08.338Z,99962.53
2023-11-12T17:03:35.774Z,99966.75
2023-11-12T17:06:03.167Z,99972.78
2023-11-12T17:08:32.225Z,99985.91
2023-11-12T17:10:59.497Z,99979.00
2023-11-12T17:13:26.765Z,99979.13
2023-11-12T17:15:54.101Z,99984.59
2023-11-12T17:18:21.402Z,99978.56
2023-11-12T17:20:48.653Z,99969.94
2023-11-12T17:23:15.939Z,99971.69
2023-11-12T17:25:44.683Z,99969.94
2023-11-12T17:28:12.020Z,99973.94
2023-11-12T17:30:39.403Z,99972.09
2023-11-12T17:33:06.724Z,99959.28
2023-11-12T17:35:34.230Z,99937.34
2023-11-12T17:38:01.486Z,99942.94
2023-11-12T17:40:28.763Z,99953.53
2023-11-12T17:42:57.427Z,99946.66
2023-11-12T17:45:24.743Z,99939.13
2023-11-12T17:47:52.363Z,99950.00
2023-11-12T17:50:19.876Z,99949.72
2023-11-12T17:52:47.179Z,99946.00
2023-11-12T17:55:14.542Z,99955.47
2023-11-12T17:57:41.875Z,99954.63
2023-11-12T18:00:12.458Z,99950.16
2023-11-12T18:02:40.182Z,99956.44
2023-11-12T18:05:07.968Z,99971.09
2023-11-12T18:07:35.335Z,99973.81
2023-11-12T18:10:02.676Z,99989.75
2023-11-12T18:12:29.995Z,99988.97
2023-11-12T18:14:57.309Z,100003.38
2023-11-12T18:17:26.079Z,99999.50
2023-11-12T18:19:53.394Z,100001.97
2023-11-12T18:22:20.688Z,100001.94
2023-11-12T18:24:48.114Z,100002.97
2023-11-12T18:27:15.417Z,100009.00
2023-11-12T18:29:42.692Z,100005.78
2023-11-12T18:32:10.046Z,100003.88
2023-11-12T18:34:38.716Z,100009.88
2023-11-12T18:37:06.034Z,100004.41
2023-11-12T18:39:33.326Z,99998.72
2023-11-12T18:42:00.816Z,100004.63
2023-11-12T18:44:28.202Z,100001.00
2023-11-12T18:46:55.590Z,100012.34
2023-11-12T18:49:23.048Z,100021.81
2023-11-12T18:51:51.759Z,100019.09
2023-11-12T18:54:19.532Z,100018.81
2023-11-12T18:56:46.889Z,100011.16
2023-11-12T18:59:14.297Z,100019.09
2023-11-12T19:01:41.736Z,100016.00
2023-11-12T19:04:09.133Z,100015.72
2023-11-12T19:06:37.044Z,100007.03
2023-11-12T19:09:06.262Z,100000.81
2023-11-12T19:11:33.584Z,99993.34
2023-11-12T19:14:01.303Z,99995.06
2023-11-12T19:16:29.063Z,99988.81
2023-11-12T19:18:58.784Z,99991.91
2023-11-12T19:21:26.267Z,99996.56
2023-11-12T19:23:53.601Z,99994.19
2023-11-12T19:26:22.853Z,99997.94
2023-11-12T19:28:50.188Z,99991.34
2023-11-12T19:31:28.054Z,99997.06
2023-11-12T19:34:00.315Z,100005.63
2023-11-12T19:36:27.716Z,100004.84
2023-11-12T19:38:54.976Z,100003.44
2023-11-12T19:41:23.616Z,99998.09
2023-11-12T19:43:50.866Z,99997.97
2023-11-12T19:46:18.221Z,99982.81
2023-11-12T19:48:45.632Z,100012.31
2023-11-12T19:51:12.938Z,100020.34
2023-11-12T19:53:40.438Z,100016.09
2023-11-12T19:56:07.982Z,100019.41
2023-11-12T19:58:36.666Z,100015.50
2023-11-12T20:01:04.362Z,100021.97
2023-11-12T20:03:31.712Z,100020.09
2023-11-12T20:06:02.508Z,100024.81
2023-11-12T20:08:30.169Z,100026.84
2023-11-12T20:10:57.636Z,100029.94
2023-11-12T20:13:24.900Z,100034.78
2023-11-12T20:15:53.581Z,100039.75
2023-11-12T20:18:20.918Z,100043.69
2023-11-12T20:20:48.340Z,100043.16
2023-11-12T20:23:15.861Z,100036.41
2023-11-12T20:25:43.157Z,100035.03
2023-11-12T20:28:10.513Z,100032.84
2023-11-12T20:30:37.868Z,100027.84
2023-11-12T20:33:06.598Z,100015.91
2023-11-12T20:35:33.901Z,100022.09
2023-11-12T20:38:01.324Z,100026.63
2023-11-12T20:40:28.777Z,100035.16
2023-11-12T20:42:56.125Z,100034.13
2023-11-12T20:45:23.461Z,100027.81
2023-11-12T20:47:50.937Z,100025.41
2023-11-12T20:50:19.947Z,100008.84
2023-11-12T20:52:47.236Z,100015.22
2023-11-12T20:55:14.850Z,100008.72
2023-11-12T20:57:42.262Z,100006.00
2023-11-12T21:00:10.912Z,100013.53
2023-11-12T21:02:38.255Z,99994.38
2023-11-12T21:05:06.296Z,100006.63
2023-11-12T21:07:34.944Z,100004.28
2023-11-12T21:10:02.309Z,99996.38
2023-11-12T21:12:29.622Z,99996.88
2023-11-12T21:14:56.885Z,99993.63
2023-11-12T21:17:24.182Z,100003.44
2023-11-12T21:19:51.599Z,99995.03
2023-11-12T21:22:19.499Z,100008.22
2023-11-12T21:24:48.270Z,99991.34
2023-11-12T21:27:15.788Z,99993.72
2023-11-12T21:29:43.070Z,99988.19
2023-11-12T21:32:10.728Z,100004.31
2023-11-12T21:34:38.213Z,100007.34
2023-11-12T21:37:05.684Z,100005.13
2023-11-12T21:39:33.452Z,100009.13
2023-11-12T21:42:02.496Z,100010.22
2023-11-12T21:44:29.960Z,100018.97
2023-11-12T21:46:57.284Z,100017.75
2023-11-12T21:49:24.586Z,100009.88
2023-11-12T21:51:51.919Z,100015.91
2023-11-12T21:54:19.196Z,100021.44
2023-11-12T21:56:46.999Z,100020.63
2023-11-12T21:59:15.669Z,100025.31
2023-11-12T22:01:42.939Z,100019.59
2023-11-12T22:04:10.437Z,100015.09
2023-11-12T22:06:37.735Z,100013.94
2023-11-12T22:09:05.128Z,100016.94
2023-11-12T22:11:32.432Z,100006.19
2023-11-12T22:13:59.698Z,100006.53
2023-11-12T22:16:28.403Z,99996.56
2023-11-12T22:18:55.732Z,99997.22
2023-11-12T22:21:23.000Z,99999.38
2023-11-12T22:23:50.244Z,100002.25
2023-11-12T22:26:17.505Z,99998.91
2023-11-12T22:28:44.747Z,100009.69
2023-11-12T22:31:12.132Z,100008.50
2023-11-12T22:33:40.890Z,100006.50
2023-11-12T22:36:08.796Z,100015.56
2023-11-12T22:38:36.037Z,100015.88
2023-11-12T22:41:03.483Z,100016.38
2023-11-12T22:43:31.011Z,100020.91
2023-11-12T22:45:58.377Z,100017.72
2023-11-12T22:48:25.651Z,100019.41
2023-11-12T22:50:54.352Z,100019.88
2023-11-12T22:53:21.637Z,100026.59
2023-11-12T22:55:51.029Z,100013.69
2023-11-12T22:58:18.785Z,100026.44
2023-11-12T23:00:46.280Z,100042.88
2023-11-12T23:03:14.609Z,100032.47
2023-11-12T23:05:42.163Z,100034.47
2023-11-12T23:08:11.435Z,100030.44
2023-11-12T23:10:40.024Z,100020.41
2023-11-12T23:13:08.274Z,100027.25
2023-11-12T23:15:36.159Z,100010.00
2023-11-12T23:18:04.017Z,100004.63
2023-11-12T23:20:31.444Z,100000.06
2023-11-12T23:22:58.910Z,99999.53
2023-11-12T23:25:27.545Z,100000.75
2023-11-12T23:27:54.825Z,99991.66
2023-11-12T23:30:22.211Z,99995.16
2023-11-12T23:32:49.570Z,100011.91
2023-11-12T23:35:16.916Z,100011.88
2023-11-12T23:37:44.388Z,100022.72
2023-11-12T23:40:13.060Z,100023.56
2023-11-12T23:42:42.012Z,100017.13
2023-11-12T23:45:10.617Z,100015.19
2023-11-12T23:47:37.922Z,100026.44
2023-11-12T23:50:06.277Z,100020.50
2023-11-12T23:52:34.048Z,100017.56
2023-11-12T23:55:01.363Z,100013.34
2023-11-12T23:57:28.787Z,100004.16
2023-11-12T23:59:57.620Z,99996.91
